Aérodrome :
LOGIN :

S'inscrire | Disclaimer

   EN    FR    IT 

 










Légende :    VFR   VFR Marginal   IFR   IFR Intensif   IFR Très Intensif
Visi : 
Plafond : 
>= 8 km
>= 3000ft
5 à 8 km
1000 à 3000 ft
1500m à 5 km
500 à 1000 ft
800 à 1500m
200 à 500 ft
< 800m
< 200 ft
Symboles :   Orages  Brouillard  Fortes neiges  Fortes précipitations  Vent > 20 kt
SIGMETs :   Divers  Orages  Givrage  Turbulence  Onde Orograph.  Cendres Volcan.







- Altitude de l'aérodrome : 200 ft


EBBL - Klein Brogel AB

DERNIER METAR :
  • 240925Z 26008KT 9999 FEW028 BKN080 21/13 Q1024 BLU BLU

METARs EXPIRÉS :
  • 240855Z 27006KT 9999 FEW026 BKN080 20/13 Q1024 BLU BLU
  • 240825Z 27005KT 9999 FEW026 BKN080 19/13 Q1024 BLU BLU
  • 240755Z 26005KT 9999 FEW070 SCT080 18/13 Q1024 BLU BLU
  • 240725Z 25006KT 9999 FEW070 SCT080 18/13 Q1024 BLU BLU
  • 240655Z 25007KT 9999 FEW080 SCT270 17/13 Q1024 BLU BLU

TAF TAF EBBL
Valide du 24 à 10h jusqu'au 24 à 19h UTC


240841Z 2410/2419 27008KT 9999 SCT026 BKN080 BKN220
TEMPO 2410/2419 33010KT FEW030 SCT220
Pas de NOTAMs connus pour ce terrain.



MET'MAP, la Météo Aéronautique d'un coup d'oeil ! - Copyright ORBIFLY Décembre 2007 - Disclaimer

ORBIFLY MET'MAP TEAM :

Programmation & Développement : Alexandra Zaïnal
Conception & Développement : Baudouin d'Aumeries
Co-Programmation & Développement : Marc-Olivier Méhu
Soutien technique & logistique : Manuel Goepfert

Contact : metmap@orbifly.com




SOURCES & CREDITS :

   NOAA